Time;durP1;ratioP1;P1;durP2;ratioP2;P2;SDS_P1;SDS_P2;PMS_P1;PMS_P2;Temp;Humidity;BMP_temperature;BMP_pressure;BME280_temperature;BME280_humidity;BME280_pressure;Samples;Min_cycle;Max_cycle;Signal;HPM_P1;HPM_P2
2021/01/17 00:00:01;;;;;;;19.75;14.00;;;;;;;-2.00;84.11;100433.56;5082080;28;20182;-62
2021/01/17 00:02:28;;;;;;;19.83;12.55;;;;;;;-1.98;84.09;100429.16;5082063;28;20209;-62
2021/01/17 00:04:55;;;;;;;16.25;12.38;;;;;;;-2.02;84.22;100426.69;5082260;28;20209;-62
2021/01/17 00:07:21;;;;;;;22.97;13.33;;;;;;;-1.93;83.94;100421.97;5081598;28;20233;-62
2021/01/17 00:09:48;;;;;;;18.47;12.87;;;;;;;-2.02;84.42;100421.44;5082437;28;20435;-62
2021/01/17 00:12:14;;;;;;;20.40;12.52;;;;;;;-2.16;84.52;100427.19;5082014;28;20506;-62
2021/01/17 00:14:40;;;;;;;19.10;13.45;;;;;;;-2.19;84.52;100422.06;5081738;28;20201;-62
2021/01/17 00:17:06;;;;;;;19.35;12.88;;;;;;;-2.12;84.82;100426.16;5082382;28;20210;-62
2021/01/17 00:19:33;;;;;;;20.63;11.35;;;;;;;-1.93;84.00;100423.72;5081547;28;20217;-62
2021/01/17 00:21:59;;;;;;;21.17;12.65;;;;;;;-2.17;84.36;100415.88;5081898;28;20217;-62
2021/01/17 00:24:25;;;;;;;19.23;12.73;;;;;;;-2.28;84.91;100412.75;5081817;28;20182;-62
2021/01/17 00:26:52;;;;;;;20.92;12.38;;;;;;;-2.19;85.12;100419.44;5081888;28;20230;-62
2021/01/17 00:29:19;;;;;;;17.55;11.90;;;;;;;-2.18;85.28;100418.53;5081378;28;20657;-63
2021/01/17 00:31:45;;;;;;;19.50;13.43;;;;;;;-2.09;84.66;100415.56;5081471;28;20205;-62
2021/01/17 00:34:11;;;;;;;16.83;11.63;;;;;;;-2.03;84.52;100417.09;5081618;28;20249;-63
2021/01/17 00:36:38;;;;;;;18.35;12.00;;;;;;;-2.03;84.40;100412.75;5081461;28;20206;-63
2021/01/17 00:39:06;;;;;;;18.05;12.25;;;;;;;-2.09;84.83;100400.69;5081846;28;20185;-63
2021/01/17 00:41:32;;;;;;;20.17;12.75;;;;;;;-2.06;85.44;100399.75;5079812;28;20206;-62
2021/01/17 00:43:59;;;;;;;18.98;12.55;;;;;;;-2.09;84.75;100395.47;5081860;28;20647;-63
2021/01/17 00:46:26;;;;;;;17.25;11.27;;;;;;;-2.09;85.32;100392.00;5081095;28;20276;-63
2021/01/17 00:48:52;;;;;;;18.02;11.85;;;;;;;-2.09;84.76;100400.69;5080153;28;20248;-62
2021/01/17 00:51:19;;;;;;;19.45;12.63;;;;;;;-2.14;84.78;100389.53;5080821;28;20202;-63
2021/01/17 00:53:45;;;;;;;16.63;12.90;;;;;;;-2.23;85.38;100389.03;5080650;28;20201;-62
2021/01/17 00:56:11;;;;;;;16.55;11.02;;;;;;;-2.24;85.80;100390.78;5080683;28;20305;-62
2021/01/17 00:58:37;;;;;;;19.98;12.38;;;;;;;-2.17;85.79;100389.69;5081054;28;20201;-62
2021/01/17 01:01:05;;;;;;;15.20;11.75;;;;;;;-2.02;85.10;100384.78;5080623;28;20226;-63
2021/01/17 01:03:31;;;;;;;16.43;11.57;;;;;;;-2.08;84.77;100380.63;5080263;28;20224;-63
2021/01/17 01:05:57;;;;;;;20.23;11.40;;;;;;;-2.12;85.09;100376.38;5080203;28;20487;-63
2021/01/17 01:08:23;;;;;;;16.98;12.00;;;;;;;-2.06;85.05;100368.31;5081279;28;20240;-63
2021/01/17 01:10:49;;;;;;;17.85;11.25;;;;;;;-2.03;84.84;100376.06;5081636;28;20210;-62
2021/01/17 01:13:16;;;;;;;17.65;11.63;;;;;;;-1.95;84.20;100374.00;5082370;28;20198;-63
2021/01/17 01:15:42;;;;;;;17.00;10.00;;;;;;;-1.95;83.59;100363.50;5081479;28;20217;-63
2021/01/17 01:18:09;;;;;;;15.43;10.52;;;;;;;-2.16;84.15;100359.09;5074125;28;20216;-62
2021/01/17 01:20:35;;;;;;;14.93;9.50;;;;;;;-2.20;83.82;100362.75;5078633;28;20225;-63
2021/01/17 01:23:01;;;;;;;13.45;10.20;;;;;;;-2.19;83.00;100359.19;5080534;28;20201;-63
2021/01/17 01:25:27;;;;;;;14.98;9.80;;;;;;;-2.16;83.32;100356.47;5081026;28;20198;-63
2021/01/17 01:27:54;;;;;;;14.35;9.80;;;;;;;-2.14;83.38;100352.03;5080430;28;20256;-63
2021/01/17 01:30:21;;;;;;;13.45;10.02;;;;;;;-2.30;83.84;100347.34;5080881;28;20208;-63
2021/01/17 01:32:50;;;;;;;17.05;10.35;;;;;;;-2.26;84.19;100348.09;5080061;28;20212;-63
2021/01/17 01:35:17;;;;;;;18.70;10.52;;;;;;;-2.23;83.28;100331.44;5080409;28;20190;-63
2021/01/17 01:37:43;;;;;;;17.88;11.25;;;;;;;-2.19;83.01;100339.09;5080734;28;20245;-63
2021/01/17 01:40:10;;;;;;;25.52;11.43;;;;;;;-2.40;83.89;100332.88;5080353;28;20232;-63
2021/01/17 01:42:41;;;;;;;15.95;11.13;;;;;;;-2.41;82.75;100335.56;5080184;28;20193;-63
2021/01/17 01:45:10;;;;;;;14.48;10.10;;;;;;;-2.39;83.42;100332.00;5064481;28;20461;-63
2021/01/17 01:47:36;;;;;;;17.88;11.20;;;;;;;-2.46;83.52;100330.50;5079742;28;20228;-63
2021/01/17 01:50:04;;;;;;;17.95;10.63;;;;;;;-2.48;83.70;100327.94;5079187;28;20209;-63
2021/01/17 01:52:31;;;;;;;14.68;9.80;;;;;;;-2.36;83.52;100338.88;5078948;28;20223;-63
2021/01/17 01:54:57;;;;;;;18.77;10.93;;;;;;;-2.38;83.55;100327.59;5078927;28;20204;-63
2021/01/17 01:57:24;;;;;;;16.75;9.90;;;;;;;-2.39;83.56;100331.16;5079661;28;20242;-63
2021/01/17 01:59:51;;;;;;;23.38;12.77;;;;;;;-2.30;83.78;100326.41;5079206;28;20240;-63
2021/01/17 02:02:18;;;;;;;18.55;11.98;;;;;;;-2.41;83.05;100325.97;5079198;28;20217;-63
2021/01/17 02:04:44;;;;;;;18.65;12.10;;;;;;;-2.45;83.84;100321.72;5080422;28;20206;-63
2021/01/17 02:07:27;;;;;;;23.08;11.90;;;;;;;-2.41;84.42;100312.00;5081030;28;20265;-63
2021/01/17 02:09:54;;;;;;;17.88;11.65;;;;;;;-2.33;84.38;100318.66;5080921;28;20737;-63
2021/01/17 02:12:22;;;;;;;17.42;11.77;;;;;;;-2.14;84.50;100317.97;5081003;28;20224;-63
2021/01/17 02:14:53;;;;;;;25.58;13.05;;;;;;;-2.23;84.62;100318.34;5081314;28;20852;-63
2021/01/17 02:17:21;;;;;;;18.15;11.88;;;;;;;-2.32;84.45;100319.53;5080829;28;20230;-63
2021/01/17 02:20:11;;;;;;;18.60;12.43;;;;;;;-2.39;85.40;100315.44;5080439;28;20205;-63
2021/01/17 02:22:44;;;;;;;15.73;11.38;;;;;;;-2.42;85.62;100305.06;5078682;28;20414;-63
2021/01/17 02:25:12;;;;;;;18.48;11.70;;;;;;;-2.43;85.93;100309.47;5081257;28;20218;-63
2021/01/17 02:27:39;;;;;;;19.67;11.35;;;;;;;-2.38;85.69;100299.63;5080993;28;20241;-63
2021/01/17 02:30:08;;;;;;;21.05;13.25;;;;;;;-2.51;85.96;100301.88;5080922;28;20646;-63
2021/01/17 02:32:38;;;;;;;20.77;11.93;;;;;;;-2.32;86.12;100307.28;5080910;28;20221;-63
2021/01/17 02:35:06;;;;;;;20.98;13.38;;;;;;;-2.49;85.93;100304.44;5080517;28;20216;-63
2021/01/17 02:37:35;;;;;;;17.38;11.30;;;;;;;-2.50;86.58;100305.34;5080826;28;20205;-63
2021/01/17 02:40:06;;;;;;;23.13;14.25;;;;;;;-2.56;86.60;100303.81;5080887;28;20237;-63
2021/01/17 02:42:34;;;;;;;26.48;14.80;;;;;;;-2.61;86.82;100299.66;5080770;28;20296;-63
2021/01/17 02:45:01;;;;;;;21.40;13.20;;;;;;;-2.59;86.89;100303.06;5080989;28;20260;-63
2021/01/17 02:47:27;;;;;;;23.45;14.45;;;;;;;-2.44;87.42;100299.03;5079929;28;20241;-63
2021/01/17 02:49:53;;;;;;;19.75;13.20;;;;;;;-2.44;87.38;100310.34;5080723;28;20220;-63
2021/01/17 02:52:27;;;;;;;18.50;12.35;;;;;;;-2.46;87.28;100299.09;5080242;28;20209;-63
2021/01/17 02:54:54;;;;;;;23.30;13.85;;;;;;;-2.34;86.66;100296.00;5080925;28;20244;-63
2021/01/17 02:57:23;;;;;;;20.67;12.98;;;;;;;-2.46;87.05;100292.09;5080276;28;20249;-63
2021/01/17 02:59:56;;;;;;;22.85;14.30;;;;;;;-2.63;87.90;100298.88;5081206;28;20197;-63
2021/01/17 03:02:23;;;;;;;24.83;15.25;;;;;;;-2.56;88.13;100310.81;5080522;28;20230;-63
2021/01/17 03:04:54;;;;;;;22.90;14.63;;;;;;;-2.48;87.54;100306.16;5080503;28;20746;-63
2021/01/17 03:07:21;;;;;;;26.50;16.17;;;;;;;-2.43;87.81;100312.09;5080081;28;20335;-63
2021/01/17 03:09:47;;;;;;;22.50;14.38;;;;;;;-2.52;87.41;100308.03;5080663;28;20581;-63
2021/01/17 03:12:13;;;;;;;26.52;16.50;;;;;;;-2.41;87.29;100305.03;5080555;28;20231;-63
2021/01/17 03:14:40;;;;;;;26.67;17.05;;;;;;;-2.51;87.76;100307.09;5083924;28;20230;-63
2021/01/17 03:17:08;;;;;;;24.10;14.63;;;;;;;-2.55;87.83;100304.66;5083546;28;20226;-63
2021/01/17 03:19:35;;;;;;;29.30;15.85;;;;;;;-2.39;87.40;100303.19;5083980;28;20205;-63
2021/01/17 03:22:01;;;;;;;26.50;15.80;;;;;;;-2.52;87.81;100312.41;5084309;28;20214;-63
2021/01/17 03:24:27;;;;;;;28.27;16.95;;;;;;;-2.46;87.65;100313.03;5084284;28;20324;-61
2021/01/17 03:26:54;;;;;;;29.10;15.77;;;;;;;-2.41;87.52;100307.63;5083570;28;20264;-63
2021/01/17 03:29:20;;;;;;;23.95;14.30;;;;;;;-2.35;87.19;100306.53;5084262;28;20587;-63
2021/01/17 03:31:46;;;;;;;27.35;16.73;;;;;;;-2.32;87.53;100322.16;5083460;28;20198;-63
2021/01/17 03:34:13;;;;;;;29.27;15.38;;;;;;;-2.35;87.63;100310.00;5083729;28;20252;-63
2021/01/17 03:36:40;;;;;;;25.65;16.48;;;;;;;-2.32;87.34;100311.69;5084072;28;20220;-63
2021/01/17 03:39:06;;;;;;;22.92;15.20;;;;;;;-2.33;87.33;100310.81;5083769;28;20186;-61
2021/01/17 03:41:32;;;;;;;26.05;15.85;;;;;;;-2.27;86.99;100304.50;5083753;28;20228;-61
2021/01/17 03:43:59;;;;;;;25.75;16.17;;;;;;;-2.06;86.67;100307.22;5084026;28;20202;-61
2021/01/17 03:46:27;;;;;;;26.23;16.20;;;;;;;-2.21;86.38;100309.50;5083288;28;20825;-61
2021/01/17 03:48:53;;;;;;;26.23;16.25;;;;;;;-2.28;86.35;100302.78;5082604;28;20714;-61
2021/01/17 03:51:20;;;;;;;26.55;15.88;;;;;;;-2.14;86.51;100305.72;5084265;28;20220;-61
2021/01/17 03:53:46;;;;;;;26.48;15.13;;;;;;;-2.20;86.80;100302.50;5082996;28;20236;-61
2021/01/17 03:56:13;;;;;;;29.80;18.48;;;;;;;-2.19;86.63;100299.81;5083700;28;20213;-61
2021/01/17 03:58:39;;;;;;;25.83;16.73;;;;;;;-2.13;86.31;100298.75;5083650;28;20190;-61
2021/01/17 04:01:05;;;;;;;26.92;16.23;;;;;;;-2.33;86.71;100297.72;5082655;28;20255;-61
2021/01/17 04:03:31;;;;;;;30.20;16.70;;;;;;;-2.28;86.81;100298.38;5082602;28;20217;-61
2021/01/17 04:05:57;;;;;;;29.27;16.70;;;;;;;-2.29;86.94;100301.09;5083349;28;20217;-62
2021/01/17 04:08:24;;;;;;;27.17;16.83;;;;;;;-2.37;87.17;100309.22;5083163;28;20238;-61
2021/01/17 04:10:50;;;;;;;28.63;17.20;;;;;;;-2.41;87.69;100310.25;5082745;28;20431;-61
2021/01/17 04:13:17;;;;;;;28.30;16.38;;;;;;;-2.21;87.44;100312.09;5083528;28;20432;-61
2021/01/17 04:15:43;;;;;;;28.48;16.83;;;;;;;-2.04;86.92;100303.63;5082679;28;20198;-61
2021/01/17 04:18:09;;;;;;;26.67;16.42;;;;;;;-2.13;87.47;100303.97;5082668;28;20704;-61
2021/01/17 04:20:36;;;;;;;30.40;17.15;;;;;;;-2.03;87.13;100297.47;5082644;28;20759;-61
2021/01/17 04:23:04;;;;;;;27.55;16.63;;;;;;;-2.36;88.18;100304.81;5082919;28;20194;-61
2021/01/17 04:25:31;;;;;;;31.27;17.70;;;;;;;-2.51;89.04;100293.19;5082886;28;20198;-61
2021/01/17 04:27:58;;;;;;;31.85;18.50;;;;;;;-2.48;88.73;100293.91;5082834;28;20261;-61
2021/01/17 04:30:26;;;;;;;31.27;17.60;;;;;;;-2.49;88.84;100291.34;5082700;28;20214;-63
2021/01/17 04:32:53;;;;;;;31.15;17.67;;;;;;;-2.54;89.10;100295.91;5081757;28;20202;-63
2021/01/17 04:35:19;;;;;;;36.90;18.38;;;;;;;-2.58;89.21;100291.69;5082695;28;20209;-63
2021/01/17 04:37:46;;;;;;;33.35;18.52;;;;;;;-2.39;88.90;100299.72;5082549;28;20214;-64
2021/01/17 04:40:12;;;;;;;32.47;18.45;;;;;;;-2.58;89.11;100300.41;5082322;28;20202;-63
2021/01/17 04:42:41;;;;;;;30.50;17.85;;;;;;;-2.45;88.82;100303.41;5082590;28;20241;-63
2021/01/17 04:45:09;;;;;;;30.75;17.63;;;;;;;-2.56;89.05;100309.03;5082581;28;20648;-63
2021/01/17 04:47:36;;;;;;;30.98;18.90;;;;;;;-2.61;89.21;100310.13;5082515;28;20222;-63
2021/01/17 04:50:04;;;;;;;30.00;17.70;;;;;;;-2.46;88.73;100304.34;5081990;28;20215;-63
2021/01/17 04:52:38;;;;;;;29.15;18.17;;;;;;;-2.43;88.32;100308.59;5081551;28;20241;-63
2021/01/17 04:55:06;;;;;;;31.63;19.35;;;;;;;-2.52;88.77;100307.16;5079209;28;20217;-61
2021/01/17 04:57:46;;;;;;;31.80;17.48;;;;;;;-2.39;88.48;100305.81;5082219;28;20243;-61
2021/01/17 05:00:13;;;;;;;31.95;18.02;;;;;;;-2.41;88.46;100309.38;5074569;28;20220;-61
2021/01/17 05:02:43;;;;;;;34.42;18.40;;;;;;;-2.36;88.54;100305.69;5081436;28;20206;-63
2021/01/17 05:05:14;;;;;;;32.72;18.73;;;;;;;-2.42;88.98;100305.91;5081806;28;20677;-63
2021/01/17 05:07:48;;;;;;;37.50;19.95;;;;;;;-2.48;88.63;100309.63;5081021;28;20238;-63
2021/01/17 05:10:28;;;;;;;29.33;17.92;;;;;;;-2.41;88.64;100306.75;5080415;28;20194;-63
2021/01/17 05:13:09;;;;;;;28.83;15.93;;;;;;;-2.42;88.68;100302.44;5079920;28;20240;-61
2021/01/17 05:15:38;;;;;;;30.13;19.00;;;;;;;-2.46;88.76;100299.09;5082020;28;20289;-61
2021/01/17 05:18:04;;;;;;;28.63;17.63;;;;;;;-2.38;88.52;100302.25;5080942;28;20211;-61
2021/01/17 05:20:30;;;;;;;26.70;17.27;;;;;;;-2.66;89.16;100300.69;5082099;28;20213;-61
2021/01/17 05:22:58;;;;;;;30.85;17.70;;;;;;;-2.52;89.04;100310.66;5081013;28;20266;-63
2021/01/17 05:25:26;;;;;;;29.58;18.65;;;;;;;-2.57;89.07;100309.09;5082088;28;20557;-63
2021/01/17 05:27:52;;;;;;;32.95;18.85;;;;;;;-2.50;89.05;100315.81;5081648;28;20253;-63
2021/01/17 05:30:20;;;;;;;30.48;16.92;;;;;;;-2.47;89.06;100318.31;5082171;28;20221;-63
2021/01/17 05:32:49;;;;;;;34.15;19.10;;;;;;;-2.54;89.03;100315.06;5080876;28;20205;-63
2021/01/17 05:35:17;;;;;;;30.85;16.98;;;;;;;-2.57;89.12;100323.06;5081926;28;20198;-63
2021/01/17 05:37:50;;;;;;;29.80;17.75;;;;;;;-2.55;89.12;100316.00;5081579;28;20209;-63
2021/01/17 05:40:17;;;;;;;28.50;17.38;;;;;;;-2.55;89.20;100318.63;5081404;28;20685;-63
2021/01/17 05:42:45;;;;;;;29.45;18.27;;;;;;;-2.49;88.94;100315.75;5082033;28;20209;-63
2021/01/17 05:45:14;;;;;;;29.20;18.75;;;;;;;-2.48;88.87;100320.09;5082241;28;20264;-63
2021/01/17 05:47:41;;;;;;;30.05;17.80;;;;;;;-2.58;89.31;100315.25;5081824;28;20229;-63
2021/01/17 05:50:10;;;;;;;33.15;18.48;;;;;;;-2.65;89.63;100310.22;5080519;28;20230;-63
2021/01/17 05:52:36;;;;;;;34.50;20.10;;;;;;;-2.62;89.99;100308.41;5080518;28;20247;-63
2021/01/17 05:55:03;;;;;;;31.80;17.65;;;;;;;-2.44;89.98;100320.84;5081390;28;20197;-63
2021/01/17 05:57:31;;;;;;;34.08;18.48;;;;;;;-2.48;89.91;100325.31;5081389;28;20246;-63
2021/01/17 05:59:59;;;;;;;32.17;17.65;;;;;;;-2.48;89.49;100322.72;5081190;28;20221;-63
2021/01/17 06:02:25;;;;;;;36.70;19.50;;;;;;;-2.36;89.78;100328.38;5081419;28;20202;-63
2021/01/17 06:04:55;;;;;;;31.70;17.95;;;;;;;-2.16;89.29;100322.41;5081166;28;20217;-63
2021/01/17 06:07:23;;;;;;;37.88;19.70;;;;;;;-2.32;89.42;100337.84;5080534;28;20265;-63
2021/01/17 06:09:56;;;;;;;34.45;20.17;;;;;;;-2.33;89.64;100336.97;5081522;28;20186;-63
2021/01/17 06:12:29;;;;;;;30.48;17.77;;;;;;;-2.19;89.65;100333.84;5081413;28;20236;-63
2021/01/17 06:15:02;;;;;;;30.63;18.00;;;;;;;-2.27;89.35;100336.78;5075689;28;20217;-63
2021/01/17 06:17:29;;;;;;;42.50;27.30;;;;;;;-2.06;89.20;100339.50;5080688;28;20206;-63
2021/01/17 06:19:56;;;;;;;37.53;21.00;;;;;;;-2.08;88.87;100336.09;5080867;28;20252;-63
2021/01/17 06:22:23;;;;;;;35.63;22.42;;;;;;;-2.15;88.84;100330.22;5080370;28;20696;-63
2021/01/17 06:24:58;;;;;;;35.97;20.38;;;;;;;-2.31;89.62;100329.94;5080863;28;20894;-63
2021/01/17 06:27:26;;;;;;;33.78;20.00;;;;;;;-2.34;89.74;100331.84;5079633;28;20828;-63
2021/01/17 06:29:52;;;;;;;30.52;18.98;;;;;;;-2.38;90.08;100333.69;5080822;28;20194;-63
2021/01/17 06:32:20;;;;;;;38.03;19.65;;;;;;;-2.32;90.14;100337.84;5080124;28;20220;-63
2021/01/17 06:34:49;;;;;;;32.20;19.65;;;;;;;-2.44;90.35;100341.78;5080881;28;20472;-63
2021/01/17 06:37:17;;;;;;;35.05;20.00;;;;;;;-2.42;90.31;100339.09;5080582;28;20198;-63
2021/01/17 06:39:45;;;;;;;43.47;24.73;;;;;;;-2.38;90.01;100340.69;5080711;28;20213;-63
2021/01/17 06:42:13;;;;;;;38.63;22.75;;;;;;;-2.35;90.24;100346.66;5081047;28;20268;-63
2021/01/17 06:44:40;;;;;;;42.63;22.15;;;;;;;-2.48;90.63;100343.66;5081267;28;20701;-63
2021/01/17 06:47:15;;;;;;;38.10;21.00;;;;;;;-2.38;90.46;100344.16;5079849;28;20233;-63
2021/01/17 06:49:41;;;;;;;41.85;21.77;;;;;;;-2.47;90.39;100349.72;5083203;28;20247;-63
2021/01/17 06:52:08;;;;;;;39.28;20.60;;;;;;;-2.55;90.88;100355.25;5083574;28;20206;-63
2021/01/17 06:54:36;;;;;;;40.00;23.27;;;;;;;-2.41;91.15;100346.91;5080345;28;20237;-63
2021/01/17 06:57:03;;;;;;;33.95;18.88;;;;;;;-2.13;90.36;100357.22;5081750;28;20249;-63
2021/01/17 06:59:35;;;;;;;44.38;29.27;;;;;;;-2.17;90.31;100350.38;5081351;28;20198;-63
2021/01/17 07:02:41;;;;;;;37.65;21.17;;;;;;;-2.12;89.94;100350.19;5080859;28;20229;-63
2021/01/17 07:05:52;;;;;;;31.80;19.23;;;;;;;-1.96;91.89;100347.84;5078954;28;20293;-63
2021/01/17 07:08:50;;;;;;;39.53;20.77;;;;;;;-1.93;90.57;100353.84;5011486;28;20370;-63
2021/01/17 07:11:33;;;;;;;41.38;23.65;;;;;;;-1.87;89.82;100346.63;5019165;28;20211;-63
2021/01/17 07:14:05;;;;;;;42.88;22.45;;;;;;;-1.85;89.44;100352.69;5000355;28;20236;-63
2021/01/17 07:16:33;;;;;;;38.40;22.73;;;;;;;-1.88;88.66;100351.03;5007817;28;20633;-63
2021/01/17 07:19:05;;;;;;;37.92;22.38;;;;;;;-2.32;89.73;100358.81;5003305;28;20639;-63
2021/01/17 07:21:39;;;;;;;39.08;23.05;;;;;;;-2.45;90.34;100363.63;5002542;28;20211;-63
2021/01/17 07:24:08;;;;;;;41.05;23.35;;;;;;;-2.32;90.42;100366.66;5001396;28;20235;-63
2021/01/17 07:26:48;;;;;;;42.63;24.77;;;;;;;-2.38;90.31;100372.09;5012676;28;20207;-63
2021/01/17 07:29:16;;;;;;;39.65;22.75;;;;;;;-2.29;90.26;100375.25;5016928;28;20667;-63
2021/01/17 07:31:45;;;;;;;43.28;22.83;;;;;;;-2.34;90.63;100374.56;5009683;28;20269;-63
2021/01/17 07:34:12;;;;;;;41.25;23.73;;;;;;;-2.46;90.39;100378.47;5011766;28;20223;-63
2021/01/17 07:36:39;;;;;;;42.33;23.23;;;;;;;-2.41;90.85;100380.94;5008119;28;20209;-63
2021/01/17 07:39:06;;;;;;;47.60;23.40;;;;;;;-2.25;90.10;100390.88;5009914;28;20192;-63
2021/01/17 07:41:37;;;;;;;40.53;23.50;;;;;;;-2.24;90.32;100401.25;5010352;28;20204;-63
2021/01/17 07:44:04;;;;;;;38.95;23.17;;;;;;;-2.16;89.56;100401.84;5048493;28;20604;-63
2021/01/17 07:46:31;;;;;;;47.20;26.55;;;;;;;-2.27;89.57;100407.47;5082978;28;20233;-63
2021/01/17 07:49:01;;;;;;;44.08;24.45;;;;;;;-2.25;89.63;100404.81;5082445;28;20221;-63
2021/01/17 07:51:27;;;;;;;42.45;23.05;;;;;;;-2.33;90.35;100404.22;5083081;28;20585;-63
2021/01/17 07:53:58;;;;;;;47.03;24.98;;;;;;;-2.44;90.69;100402.00;5082053;28;20198;-62
2021/01/17 07:56:27;;;;;;;44.53;26.00;;;;;;;-2.39;91.00;100414.94;5082108;28;20201;-62
2021/01/17 07:58:57;;;;;;;45.13;25.10;;;;;;;-2.47;91.40;100408.16;5083207;28;20186;-62
2021/01/17 08:01:48;;;;;;;45.22;24.73;;;;;;;-2.46;91.34;100406.44;5082402;28;20367;-62
2021/01/17 08:04:29;;;;;;;41.97;24.70;;;;;;;-2.31;91.25;100413.75;5082961;28;20221;-63
2021/01/17 08:06:57;;;;;;;47.50;25.92;;;;;;;-2.35;90.99;100417.38;5083212;28;20239;-62
2021/01/17 08:09:46;;;;;;;47.58;25.00;;;;;;;-2.28;90.83;100416.22;5083094;28;20265;-62
2021/01/17 08:12:30;;;;;;;47.95;27.58;;;;;;;-2.11;90.08;100428.72;5083187;28;20221;-62
2021/01/17 08:15:21;;;;;;;46.42;27.42;;;;;;;-2.10;90.36;100426.94;5082791;28;20205;-62
2021/01/17 08:17:47;;;;;;;47.55;25.23;;;;;;;-2.21;89.66;100423.88;5082733;28;20213;-62
2021/01/17 08:20:21;;;;;;;49.65;27.02;;;;;;;-2.30;90.28;100431.16;5082180;28;20210;-62
2021/01/17 08:22:48;;;;;;;54.75;33.83;;;;;;;-2.32;90.74;100429.50;5082264;28;20205;-62
2021/01/17 08:25:48;;;;;;;52.67;28.73;;;;;;;-2.25;90.59;100432.78;5082821;28;20224;-62
2021/01/17 08:28:41;;;;;;;47.25;26.65;;;;;;;-2.14;90.47;100438.47;5081899;28;20221;-62
2021/01/17 08:31:34;;;;;;;47.08;27.15;;;;;;;-2.20;90.43;100441.31;5082231;28;20251;-63
2021/01/17 08:34:07;;;;;;;52.97;30.23;;;;;;;-1.93;89.87;100439.44;5082495;28;20218;-62
2021/01/17 08:36:33;;;;;;;50.42;28.45;;;;;;;-2.15;89.82;100435.00;5082241;28;20251;-62
2021/01/17 08:38:59;;;;;;;44.58;25.20;;;;;;;-1.92;89.63;100451.66;5081462;28;20190;-62
2021/01/17 08:41:26;;;;;;;52.63;29.40;;;;;;;-2.09;89.41;100445.22;5081848;28;20217;-64
2021/01/17 08:43:55;;;;;;;43.75;26.85;;;;;;;-2.07;89.68;100450.44;5082504;28;20197;-62
2021/01/17 08:46:34;;;;;;;45.63;24.85;;;;;;;-2.06;89.50;100448.69;5078651;28;20218;-62
2021/01/17 08:49:01;;;;;;;47.50;28.23;;;;;;;-2.05;89.80;100442.50;5072709;28;20236;-62
2021/01/17 08:51:28;;;;;;;50.72;27.48;;;;;;;-1.99;89.61;100445.75;5081299;28;20213;-62
2021/01/17 08:53:54;;;;;;;49.80;27.73;;;;;;;-2.03;89.74;100438.06;5080587;28;20271;-62
2021/01/17 08:56:23;;;;;;;51.90;28.90;;;;;;;-2.06;89.75;100435.59;5080625;28;20197;-62
2021/01/17 08:58:53;;;;;;;43.33;26.05;;;;;;;-2.01;89.65;100446.75;5081488;28;20202;-62
2021/01/17 09:01:20;;;;;;;50.40;27.70;;;;;;;-1.97;89.39;100441.31;5080954;28;20678;-63
2021/01/17 09:03:56;;;;;;;43.55;25.25;;;;;;;-1.96;89.48;100437.81;5080122;28;20245;-62
2021/01/17 09:06:27;;;;;;;40.50;24.98;;;;;;;-1.75;89.37;100440.53;5081200;28;20244;-62
2021/01/17 09:09:14;;;;;;;41.83;27.50;;;;;;;-1.80;88.31;100448.56;5081397;28;20232;-62
2021/01/17 09:11:41;;;;;;;38.30;23.65;;;;;;;-1.41;87.18;100447.94;5080123;28;20239;-62
2021/01/17 09:14:24;;;;;;;44.92;26.23;;;;;;;-1.67;87.53;100453.34;5081194;28;20201;-63
2021/01/17 09:16:53;;;;;;;46.80;26.35;;;;;;;-1.39;86.69;100450.50;5081051;28;20210;-62
2021/01/17 09:19:22;;;;;;;43.88;26.35;;;;;;;-1.26;86.13;100456.16;5080155;28;20244;-62
2021/01/17 09:21:53;;;;;;;49.88;26.35;;;;;;;-0.95;85.69;100463.66;5081485;28;20217;-62
2021/01/17 09:24:20;;;;;;;41.63;24.85;;;;;;;-0.90;84.71;100471.31;5081020;28;20194;-63
2021/01/17 09:26:48;;;;;;;40.00;23.45;;;;;;;-1.29;85.64;100467.59;5080453;28;20210;-63
2021/01/17 09:29:36;;;;;;;38.58;22.65;;;;;;;-1.03;85.06;100470.97;5081021;28;20194;-63
2021/01/17 09:32:10;;;;;;;42.30;22.02;;;;;;;-0.89;84.90;100468.63;5075461;28;20375;-62
2021/01/17 09:34:38;;;;;;;39.83;23.60;;;;;;;-1.07;85.29;100475.50;5080209;28;20236;-62
2021/01/17 09:37:08;;;;;;;38.53;23.77;;;;;;;-1.12;85.75;100469.56;5080992;28;20671;-62
2021/01/17 09:39:39;;;;;;;40.23;23.30;;;;;;;-1.14;85.18;100480.13;5080304;28;20190;-63
2021/01/17 09:42:07;;;;;;;41.47;23.08;;;;;;;-1.03;84.91;100490.19;5080124;28;20852;-62
2021/01/17 09:44:35;;;;;;;43.20;24.83;;;;;;;-0.62;84.25;100492.91;5080286;28;20210;-62
2021/01/17 09:47:02;;;;;;;42.20;23.60;;;;;;;-0.76;83.59;100498.72;5079180;28;20209;-62
2021/01/17 09:49:30;;;;;;;42.13;23.27;;;;;;;-0.59;83.55;100497.16;5079910;28;20447;-63
2021/01/17 09:51:57;;;;;;;37.53;22.70;;;;;;;-0.52;82.75;100501.28;5080243;28;20230;-63
2021/01/17 09:54:24;;;;;;;42.25;23.38;;;;;;;-0.39;82.69;100494.56;5078783;28;20553;-64
2021/01/17 09:56:50;;;;;;;34.63;22.63;;;;;;;-0.64;83.85;100513.13;5077601;28;20213;-61
2021/01/17 09:59:19;;;;;;;34.33;21.33;;;;;;;-0.63;83.47;100509.56;5080488;28;20494;-62
2021/01/17 10:01:46;;;;;;;40.65;23.33;;;;;;;-0.89;84.43;100510.63;5079377;28;20740;-63
2021/01/17 10:04:27;;;;;;;37.93;22.77;;;;;;;-0.74;83.69;100509.19;5076845;28;20220;-62
2021/01/17 10:06:56;;;;;;;36.10;22.60;;;;;;;-0.58;83.63;100512.88;5077578;28;20467;-62
2021/01/17 10:09:24;;;;;;;37.10;22.73;;;;;;;-0.33;82.76;100506.63;5079625;28;20786;-62
2021/01/17 10:12:01;;;;;;;37.03;22.23;;;;;;;-0.50;82.76;100520.44;5080250;28;20443;-62
2021/01/17 10:14:29;;;;;;;40.40;22.70;;;;;;;-0.80;83.70;100525.16;5080288;28;20435;-62
2021/01/17 10:16:57;;;;;;;33.63;20.63;;;;;;;-0.83;84.75;100525.31;5079581;28;20448;-62
2021/01/17 10:19:27;;;;;;;33.30;21.80;;;;;;;-0.74;84.08;100524.09;5080063;28;20509;-63
2021/01/17 10:21:54;;;;;;;36.60;22.63;;;;;;;-0.85;84.24;100521.88;5078015;28;20458;-62
2021/01/17 10:24:21;;;;;;;36.83;22.17;;;;;;;-0.53;84.74;100517.09;5083384;28;20208;-62
2021/01/17 10:26:54;;;;;;;41.37;24.33;;;;;;;-0.35;83.29;100508.44;5084493;28;20444;-62
2021/01/17 10:29:22;;;;;;;46.70;23.98;;;;;;;-0.63;83.32;100516.59;5078183;28;20444;-62
2021/01/17 10:31:51;;;;;;;43.50;25.40;;;;;;;-0.80;84.53;100523.41;5083110;28;20209;-62
2021/01/17 10:34:32;;;;;;;39.77;23.00;;;;;;;-0.78;84.44;100516.31;5080867;28;20856;-62
2021/01/17 10:37:00;;;;;;;37.67;21.37;;;;;;;-1.07;84.69;100520.09;5081392;28;20450;-62
2021/01/17 10:39:27;;;;;;;35.40;21.80;;;;;;;-0.84;85.15;100513.94;5082920;28;20443;-62
2021/01/17 10:42:03;;;;;;;38.90;22.50;;;;;;;-0.67;84.60;100523.75;5082972;28;20448;-62
2021/01/17 10:44:30;;;;;;;35.07;21.97;;;;;;;-0.53;83.94;100514.47;5083795;28;21000;-62
2021/01/17 10:47:03;;;;;;;36.70;22.38;;;;;;;-0.77;84.47;100518.00;5079464;28;20522;-62
2021/01/17 10:49:34;;;;;;;40.53;23.37;;;;;;;-0.53;84.44;100517.94;5082628;28;20205;-62
2021/01/17 10:52:06;;;;;;;38.23;21.87;;;;;;;-0.42;83.92;100520.13;5081248;28;20468;-62
2021/01/17 10:54:33;;;;;;;37.15;23.48;;;;;;;-0.68;83.88;100523.81;5082582;28;20462;-62
2021/01/17 10:57:03;;;;;;;42.23;22.70;;;;;;;-0.55;83.96;100525.03;5083339;28;20202;-62
2021/01/17 10:59:30;;;;;;;40.13;23.17;;;;;;;-0.83;84.92;100526.16;5083048;28;20526;-62
2021/01/17 11:01:56;;;;;;;34.90;22.83;;;;;;;-0.75;85.55;100523.22;5079041;28;20202;-62
2021/01/17 11:04:23;;;;;;;36.50;22.30;;;;;;;-0.44;84.91;100527.22;5082818;28;20213;-62
2021/01/17 11:06:49;;;;;;;35.63;21.53;;;;;;;-0.18;83.82;100525.25;5082737;28;20467;-63
2021/01/17 11:09:17;;;;;;;39.97;23.43;;;;;;;-0.19;83.76;100524.41;5081924;28;20479;-63
2021/01/17 11:11:45;;;;;;;34.80;22.40;;;;;;;-0.23;83.61;100522.81;5082329;28;20444;-63
2021/01/17 11:14:12;;;;;;;37.10;22.17;;;;;;;0.03;83.69;100528.75;5083177;28;20459;-62
2021/01/17 11:16:39;;;;;;;34.90;22.47;;;;;;;-0.39;84.19;100525.25;5078971;28;20448;-62
2021/01/17 11:19:07;;;;;;;41.97;25.07;;;;;;;-0.50;85.45;100528.31;5082358;28;20451;-62